Time;durP1;ratioP1;P1;durP2;ratioP2;P2;SDS_P1;SDS_P2;PMS_P1;PMS_P2;Temp;Humidity;BMP_temperature;BMP_pressure;BME280_temperature;BME280_humidity;BME280_pressure;Samples;Min_cycle;Max_cycle;Signal;HPM_P1;HPM_P2
2021/11/02 00:00:10;;;;;;;13.00;10.93;;;10.20;99.90;10.00;95228.00;;;;5059993;28;20196;-59
2021/11/02 00:03:00;;;;;;;15.37;11.20;;;10.10;99.90;10.00;95215.00;;;;5062091;28;20216;-64
2021/11/02 00:05:48;;;;;;;11.27;9.97;;;10.10;99.90;10.00;95223.00;;;;5046947;28;20192;-59
2021/11/02 00:08:37;;;;;;;11.80;10.63;;;10.10;99.90;9.90;95219.00;;;;5067430;28;20203;-62
2021/11/02 00:11:26;;;;;;;12.87;10.87;;;10.10;99.90;9.90;95213.00;;;;5059390;28;20741;-59
2021/11/02 00:14:20;;;;;;;14.23;10.60;;;10.00;99.90;9.90;95211.00;;;;5057849;28;20211;-61
2021/11/02 00:17:13;;;;;;;11.07;9.43;;;10.00;99.90;9.90;95211.00;;;;5046767;28;20207;-61
2021/11/02 00:20:03;;;;;;;12.47;10.10;;;10.00;99.90;9.90;95189.00;;;;5046630;28;20197;-60
2021/11/02 00:22:56;;;;;;;10.67;9.57;;;10.00;99.90;9.80;95201.00;;;;5046924;28;20224;-60
2021/11/02 00:25:46;;;;;;;10.03;8.60;;;10.00;99.90;9.80;95198.00;;;;5060812;28;20204;-62
2021/11/02 00:28:35;;;;;;;11.47;10.20;;;9.90;99.90;9.80;95186.00;;;;5066830;28;20204;-59
2021/11/02 00:31:25;;;;;;;10.57;9.40;;;9.90;99.90;9.80;95186.00;;;;5065995;28;20235;-62
2021/11/02 00:34:14;;;;;;;9.33;8.43;;;9.90;99.90;9.80;95180.00;;;;5067514;28;20196;-62
2021/11/02 00:37:06;;;;;;;11.50;8.47;;;9.90;99.90;9.80;95165.00;;;;5065397;28;20227;-62
2021/11/02 00:39:55;;;;;;;11.90;8.80;;;9.90;99.90;9.80;95151.00;;;;5065513;28;20195;-61
2021/11/02 00:42:52;;;;;;;10.50;8.87;;;9.90;99.90;9.80;95147.00;;;;5066178;28;20224;-60
2021/11/02 00:45:41;;;;;;;12.23;8.53;;;9.90;99.90;9.80;95134.00;;;;5063880;28;20666;-64
2021/11/02 00:48:33;;;;;;;12.27;8.50;;;9.90;99.90;9.60;95151.00;;;;5066332;28;20207;-62
2021/11/02 00:51:21;;;;;;;11.50;9.50;;;9.90;99.90;9.60;95159.00;;;;5066853;28;20252;-61
2021/11/02 00:54:10;;;;;;;10.17;9.10;;;9.80;99.90;9.50;95173.00;;;;5065239;28;20200;-61
2021/11/02 00:56:59;;;;;;;11.47;8.70;;;9.80;99.90;9.20;95182.00;;;;5065653;28;20196;-60
2021/11/02 00:59:48;;;;;;;12.83;10.13;;;9.70;99.90;9.40;95188.00;;;;5064617;28;20196;-59
2021/11/02 01:02:37;;;;;;;12.87;9.67;;;9.70;99.90;9.40;95197.00;;;;5066743;28;20220;-63
2021/11/02 01:05:27;;;;;;;9.73;8.03;;;9.70;99.90;9.40;95192.00;;;;5060788;28;20204;-59
2021/11/02 01:08:16;;;;;;;9.10;7.83;;;9.70;99.90;9.40;95201.00;;;;5053483;28;20200;-59
2021/11/02 01:11:05;;;;;;;8.37;7.43;;;9.60;99.90;9.50;95225.00;;;;5075649;28;20206;-57
2021/11/02 01:13:55;;;;;;;12.20;7.67;;;9.70;99.90;9.60;95231.00;;;;5055541;28;20212;-59
2021/11/02 01:16:44;;;;;;;8.63;7.40;;;9.70;99.90;9.60;95222.00;;;;5051179;28;20214;-61
2021/11/02 01:19:33;;;;;;;8.00;6.90;;;9.70;99.90;9.70;95211.00;;;;5052283;28;20282;-59
2021/11/02 01:22:23;;;;;;;8.50;6.73;;;9.70;99.90;9.70;95208.00;;;;5055961;28;20700;-62
2021/11/02 01:25:14;;;;;;;8.37;6.97;;;9.70;99.90;9.70;95203.00;;;;5063897;28;20204;-62
2021/11/02 01:28:03;;;;;;;8.67;7.20;;;9.70;99.90;9.60;95201.00;;;;5049955;28;20204;-62
2021/11/02 01:30:52;;;;;;;8.60;7.57;;;9.70;99.90;9.60;95196.00;;;;5054534;28;20216;-64
2021/11/02 01:33:41;;;;;;;7.23;5.23;;;9.70;99.90;9.60;95197.00;;;;5064407;28;20219;-64
2021/11/02 01:36:30;;;;;;;7.20;6.47;;;9.70;99.90;9.60;95202.00;;;;5063961;28;20579;-63
2021/11/02 01:39:21;;;;;;;6.00;4.93;;;9.60;99.90;9.60;95204.00;;;;5064928;28;20333;-60
2021/11/02 01:42:10;;;;;;;6.27;4.80;;;9.60;99.90;9.60;95213.00;;;;5066091;28;20220;-60
2021/11/02 01:44:59;;;;;;;7.00;5.13;;;9.60;99.90;9.50;95220.00;;;;5064528;28;20211;-60
2021/11/02 01:47:49;;;;;;;8.87;6.47;;;9.60;99.90;9.50;95222.00;;;;5062840;28;20200;-63
2021/11/02 01:50:39;;;;;;;8.07;5.70;;;9.60;99.90;9.50;95219.00;;;;5065286;28;20199;-63
2021/11/02 01:53:27;;;;;;;7.93;5.57;;;9.60;99.90;9.50;95203.00;;;;5069789;28;20227;-61
2021/11/02 01:56:19;;;;;;;7.47;6.67;;;9.60;99.90;9.50;95209.00;;;;5069411;28;20546;-61
2021/11/02 01:59:08;;;;;;;5.73;4.97;;;9.60;99.90;9.50;95197.00;;;;5069264;28;20196;-63
2021/11/02 02:02:06;;;;;;;7.17;4.80;;;9.60;99.90;9.50;95203.00;;;;5067400;28;20226;-61
2021/11/02 02:05:06;;;;;;;8.13;6.50;;;9.60;99.90;9.30;95210.00;;;;5050525;28;20711;-59
2021/11/02 02:08:05;;;;;;;7.00;6.30;;;9.60;99.90;9.40;95201.00;;;;5049932;28;20219;-64
2021/11/02 02:11:11;;;;;;;6.83;4.97;;;9.60;99.90;9.40;95208.00;;;;5065398;28;20204;-57
2021/11/02 02:14:12;;;;;;;7.40;5.53;;;9.60;99.90;9.40;95212.00;;;;5057111;28;20227;-60
2021/11/02 02:17:09;;;;;;;6.83;6.03;;;9.50;99.90;9.40;95222.00;;;;5051888;28;20208;-63
2021/11/02 02:20:04;;;;;;;7.67;6.83;;;9.50;99.90;9.40;95227.00;;;;5063128;28;20204;-63
2021/11/02 02:23:16;;;;;;;10.43;5.60;;;9.50;99.90;9.40;95220.00;;;;5058170;28;20231;-59
2021/11/02 02:26:17;;;;;;;9.13;6.50;;;9.50;99.90;9.50;95203.00;;;;5076549;28;20199;-59
2021/11/02 02:29:09;;;;;;;5.17;4.67;;;9.50;99.90;9.40;95207.00;;;;5071258;28;20214;-62
2021/11/02 02:31:58;;;;;;;6.40;5.40;;;9.50;99.90;9.30;95215.00;;;;5053165;28;20224;-62
2021/11/02 02:34:54;;;;;;;5.07;3.10;;;9.50;99.90;9.10;95211.00;;;;5049928;28;20568;-60
2021/11/02 02:37:45;;;;;;;2.30;2.10;;;9.50;99.90;9.00;95216.00;;;;5049054;28;20208;-58
2021/11/02 02:40:36;;;;;;;3.80;1.83;;;9.40;99.90;9.00;95217.00;;;;5049378;28;20200;-63
2021/11/02 02:43:27;;;;;;;3.33;1.57;;;9.30;99.90;9.10;95223.00;;;;5050198;28;20193;-57
2021/11/02 02:46:18;;;;;;;2.80;1.63;;;9.30;99.90;9.00;95231.00;;;;5048645;28;20207;-63
2021/11/02 02:49:10;;;;;;;1.13;1.00;;;9.20;99.90;8.70;95231.00;;;;5049177;28;20577;-62
2021/11/02 02:51:59;;;;;;;0.47;0.47;;;9.10;99.90;8.60;95244.00;;;;5054317;28;20737;-60
2021/11/02 02:54:48;;;;;;;0.40;0.40;;;9.00;99.90;8.60;95250.00;;;;5068670;28;20209;-60
2021/11/02 02:57:38;;;;;;;0.40;0.40;;;8.90;99.90;8.50;95247.00;;;;5070130;28;20671;-62
2021/11/02 03:00:29;;;;;;;0.60;0.60;;;8.80;99.90;8.40;95242.00;;;;5064463;28;20215;-61
2021/11/02 03:03:21;;;;;;;1.17;0.50;;;8.70;99.90;8.40;95235.00;;;;5065691;28;20199;-61
2021/11/02 03:06:16;;;;;;;0.70;0.63;;;8.70;99.90;8.40;95242.00;;;;5086876;28;20187;-61
2021/11/02 03:09:07;;;;;;;0.30;0.30;;;8.60;99.90;8.30;95242.00;;;;5057039;28;20204;-61
2021/11/02 03:11:57;;;;;;;1.70;1.27;;;8.60;99.90;8.00;95243.00;;;;5073630;28;20215;-61
2021/11/02 03:15:00;;;;;;;0.47;0.47;;;8.50;99.90;7.90;95237.00;;;;5066503;28;20207;-62
2021/11/02 03:18:00;;;;;;;0.43;0.43;;;8.30;99.90;7.90;95230.00;;;;5049397;28;20193;-62
2021/11/02 03:49:19;;;;;;;0.20;0.20;;;7.60;99.90;7.20;95231.00;;;;5087383;28;20192;-61
2021/11/02 03:54:29;;;;;;;0.67;0.20;;;7.60;99.90;7.30;95237.00;;;;5077840;28;20682;-58
2021/11/02 03:55:29;;;;;;;1.17;0.30;;;7.50;99.90;7.30;95233.00;;;;5076339;28;20215;-60
2021/11/02 03:58:23;;;;;;;0.50;0.37;;;7.50;99.90;7.20;95230.00;;;;5083707;28;20200;-58
2021/11/02 04:01:27;;;;;;;0.20;0.20;;;7.60;99.90;7.10;95228.00;;;;5047691;28;20595;-60
2021/11/02 04:58:22;;;;;;;1.10;1.00;;;7.30;99.90;6.90;95189.00;;;;5067234;28;20204;-61
2021/11/02 05:08:04;;;;;;;2.10;0.27;;;7.20;99.90;6.90;95188.00;;;;5005339;28;20203;-61
2021/11/02 05:46:38;;;;;;;0.57;0.43;;;7.10;99.90;6.90;95198.00;;;;5058780;28;20214;-59
2021/11/02 05:48:58;;;;;;;0.43;0.40;;;7.00;99.90;6.90;95201.00;;;;5066983;28;20671;-61
2021/11/02 05:52:17;;;;;;;0.47;0.47;;;7.00;99.90;6.80;95203.00;;;;5063715;28;20220;-59
2021/11/02 05:58:17;;;;;;;0.40;0.40;;;7.10;99.90;6.80;95205.00;;;;5066151;28;20215;-59
2021/11/02 06:01:09;;;;;;;0.40;0.40;;;7.10;99.90;6.90;95215.00;;;;5063593;28;20195;-59
2021/11/02 06:04:10;;;;;;;0.67;0.53;;;7.00;99.90;6.90;95210.00;;;;5065281;28;20204;-63
2021/11/02 06:07:28;;;;;;;0.40;0.40;;;7.10;99.90;6.90;95218.00;;;;5063087;28;20203;-60
2021/11/02 06:29:19;;;;;;;0.60;0.60;;;7.10;99.90;6.90;95268.00;;;;5051116;28;20212;-60
2021/11/02 06:32:13;;;;;;;0.40;0.40;;;7.10;99.90;7.00;95271.00;;;;5048477;28;21009;-64
2021/11/02 06:35:11;;;;;;;0.40;0.40;;;7.10;99.90;6.90;95264.00;;;;5055056;28;20251;-59
2021/11/02 06:48:09;;;;;;;0.80;0.57;;;7.10;99.90;7.00;95278.00;;;;5002801;28;20211;-63
2021/11/02 06:54:31;;;;;;;0.43;0.40;;;7.10;99.90;7.00;95275.00;;;;5059832;28;20234;-63
2021/11/02 07:16:32;;;;;;;3.13;1.00;;;7.30;99.90;7.30;95321.00;;;;5102686;28;20206;-61
2021/11/02 07:19:28;;;;;;;2.00;0.70;;;7.40;99.90;7.40;95312.00;;;;5113561;28;20204;-59
2021/11/02 07:22:29;;;;;;;1.73;0.60;;;7.40;99.90;7.50;95311.00;;;;5122230;28;20221;-59
2021/11/02 07:25:29;;;;;;;1.80;0.90;;;7.50;99.90;7.50;95309.00;;;;5116671;27;20201;-64
2021/11/02 08:47:45;;;;;;;1.17;0.70;;;8.00;99.90;7.80;95408.00;;;;5102819;28;20213;-64
2021/11/02 08:50:38;;;;;;;0.93;0.60;;;8.00;99.90;8.00;95403.00;;;;5100644;28;20692;-62
2021/11/02 08:53:29;;;;;;;0.60;0.60;;;8.00;99.90;8.10;95386.00;;;;5097318;28;20206;-65
2021/11/02 08:56:41;;;;;;;0.90;0.70;;;8.00;99.90;8.20;95393.00;;;;5099653;28;20294;-63
2021/11/02 08:59:34;;;;;;;0.67;0.63;;;8.10;99.90;8.20;95399.00;;;;5102917;28;20751;-60
2021/11/02 09:02:34;;;;;;;0.60;0.60;;;8.20;99.90;8.10;95414.00;;;;5102642;28;20230;-59
2021/11/02 09:05:30;;;;;;;0.77;0.73;;;8.20;99.90;7.70;95426.00;;;;5099747;28;20194;-62
2021/11/02 09:08:22;;;;;;;1.25;0.70;;;8.20;99.90;7.70;95423.00;;;;5105371;28;20393;-64
2021/11/02 09:11:41;;;;;;;0.63;0.63;;;8.10;99.90;7.70;95434.00;;;;5096872;28;20329;-63
2021/11/02 09:14:56;;;;;;;2.17;0.90;;;8.00;99.90;7.80;95450.00;;;;5106275;28;20669;-62
2021/11/02 09:17:49;;;;;;;0.60;0.60;;;8.00;99.90;7.90;95454.00;;;;5088129;28;20736;-59
2021/11/02 09:20:39;;;;;;;0.80;0.70;;;8.00;99.90;7.90;95469.00;;;;5093441;28;20735;-60
2021/11/02 09:23:55;;;;;;;1.00;0.70;;;8.00;99.90;7.90;95459.00;;;;5105984;27;20226;-57
2021/11/02 09:27:10;;;;;;;0.73;0.67;;;8.00;99.90;7.80;95478.00;;;;5105428;28;20202;-58
2021/11/02 09:30:04;;;;;;;1.67;0.50;;;8.00;99.90;7.80;95480.00;;;;5097430;28;20573;-62
2021/11/02 09:32:55;;;;;;;0.67;0.67;;;8.00;99.90;7.90;95473.00;;;;5095858;27;20219;-62
2021/11/02 09:35:45;;;;;;;0.70;0.70;;;8.00;99.90;8.00;95480.00;;;;5092233;28;20788;-62
2021/11/02 09:38:48;;;;;;;1.57;0.80;;;8.00;99.90;8.00;95477.00;;;;5100932;28;20579;-63
2021/11/02 09:42:31;;;;;;;1.00;0.73;;;8.10;99.90;8.10;95468.00;;;;5100008;28;20229;-61
2021/11/02 09:46:09;;;;;;;1.83;1.03;;;8.10;99.90;8.00;95468.00;;;;5094986;28;20214;-62
2021/11/02 09:49:41;;;;;;;2.40;1.20;;;8.10;99.90;8.00;95462.00;;;;5101672;28;20937;-63
2021/11/02 09:53:44;;;;;;;2.33;1.33;;;8.10;99.90;7.90;95451.00;;;;5097108;28;20283;-60
2021/11/02 09:57:00;;;;;;;1.27;1.00;;;8.10;99.90;8.00;95450.00;;;;5021858;28;20298;-63
2021/11/02 10:00:09;;;;;;;2.37;1.10;;;8.10;99.90;8.10;95448.00;;;;5029982;28;21039;-62
2021/11/02 10:04:00;;;;;;;1.33;1.17;;;8.10;99.90;8.20;95441.00;;;;5096331;28;20632;-63
2021/11/02 10:07:35;;;;;;;1.40;1.10;;;8.20;99.90;8.60;95440.00;;;;5093700;28;20221;-62
2021/11/02 10:10:32;;;;;;;2.97;2.23;;;8.30;99.90;8.90;95436.00;;;;5094199;28;20224;-62
2021/11/02 10:13:47;;;;;;;1.70;1.60;;;8.60;99.90;9.30;95422.00;;;;5102219;28;20377;-63
2021/11/02 10:17:04;;;;;;;3.33;2.75;;;8.90;99.90;10.20;95408.00;;;;5093756;28;20384;-62
2021/11/02 10:20:12;;;;;;;2.83;2.10;;;9.30;99.90;10.50;95405.00;;;;5086746;28;20203;-61
2021/11/02 10:23:19;;;;;;;2.53;1.30;;;9.70;99.90;11.00;95406.00;;;;5099873;28;20237;-59
2021/11/02 10:26:29;;;;;;;1.87;1.33;;;10.20;99.90;11.40;95387.00;;;;5102827;28;20476;-61
2021/11/02 10:33:03;;;;;;;2.27;0.90;;;11.30;99.90;12.20;95396.00;;;;5104547;28;20219;-61
2021/11/02 10:36:17;;;;;;;1.43;1.20;;;11.60;99.90;12.10;95402.00;;;;5093970;28;20203;-64
2021/11/02 10:39:19;;;;;;;1.17;1.07;;;11.80;99.90;12.40;95410.00;;;;5088081;28;20211;-62
2021/11/02 10:42:28;;;;;;;1.17;0.90;;;12.10;99.90;12.40;95417.00;;;;5094713;28;20218;-61
2021/11/02 10:45:31;;;;;;;3.43;1.20;;;12.20;99.90;11.90;95433.00;;;;5097221;28;20203;-61
2021/11/02 10:48:30;;;;;;;5.07;0.90;;;12.30;99.90;12.10;95421.00;;;;5101767;28;20538;-60
2021/11/02 10:51:35;;;;;;;3.60;1.20;;;12.20;99.90;12.30;95402.00;;;;5098540;28;20223;-62
2021/11/02 10:54:59;;;;;;;2.53;0.77;;;12.30;99.90;13.30;95402.00;;;;5097905;28;20203;-61
2021/11/02 10:58:46;;;;;;;2.97;0.90;;;12.60;99.90;13.10;95427.00;;;;5086807;28;20199;-62
2021/11/02 11:01:36;;;;;;;0.80;0.80;;;13.10;99.90;12.60;95407.00;;;;5033487;28;20286;-64
2021/11/02 11:04:34;;;;;;;1.93;0.53;;;13.40;99.90;13.10;95421.00;;;;5090137;28;20218;-62
2021/11/02 11:07:23;;;;;;;1.50;0.60;;;13.50;99.90;12.40;95426.00;;;;5095392;28;20195;-62
2021/11/02 11:10:14;;;;;;;1.53;0.57;;;13.50;99.90;11.90;95430.00;;;;5093896;28;20431;-58
2021/11/02 11:13:03;;;;;;;0.60;0.50;;;13.30;99.90;12.10;95417.00;;;;5099501;28;20219;-63
2021/11/02 11:15:58;;;;;;;0.50;0.50;;;13.10;99.90;12.10;95391.00;;;;5092915;28;20579;-59
2021/11/02 11:19:02;;;;;;;0.67;0.50;;;12.80;99.90;12.60;95412.00;;;;5094136;28;20203;-64
2021/11/02 11:21:54;;;;;;;0.97;0.40;;;13.00;99.90;12.20;95460.00;;;;5096064;28;20222;-61
2021/11/02 11:24:53;;;;;;;1.27;0.50;;;12.90;99.90;12.60;95415.00;;;;5096833;28;20218;-63
2021/11/02 11:27:51;;;;;;;2.00;0.40;;;12.90;99.90;14.40;95422.00;;;;5095523;28;20202;-63
2021/11/02 11:30:42;;;;;;;10.80;5.83;;;13.50;99.90;15.80;95420.00;;;;5098286;28;20237;-62
2021/11/02 11:33:32;;;;;;;1.37;0.90;;;14.40;99.90;14.80;95452.00;;;;5093645;28;20207;-64
2021/11/02 11:36:26;;;;;;;1.47;0.80;;;14.90;99.90;14.90;95444.00;;;;5099776;28;20195;-64
2021/11/02 11:39:22;;;;;;;1.43;0.70;;;15.00;99.90;15.10;95398.00;;;;5093561;28;20704;-61
2021/11/02 11:42:18;;;;;;;0.83;0.70;;;15.10;99.90;15.40;95436.00;;;;5098831;28;20222;-63
2021/11/02 11:45:12;;;;;;;1.07;0.67;;;15.40;99.90;14.60;95389.00;;;;5100881;28;20222;-63
2021/11/02 11:48:06;;;;;;;0.80;0.50;;;15.70;99.90;14.10;95415.00;;;;5093163;28;20605;-64
2021/11/02 11:50:58;;;;;;;0.27;0.27;;;15.50;99.90;14.10;95429.00;;;;5099566;28;20214;-63
2021/11/02 11:53:48;;;;;;;1.83;0.47;;;15.30;99.90;14.80;95400.00;;;;5092711;28;20203;-62
2021/11/02 11:56:39;;;;;;;0.30;0.30;;;15.30;99.90;16.20;95398.00;;;;5091005;28;20698;-61
2021/11/02 11:59:29;;;;;;;0.40;0.40;;;15.70;99.90;17.20;95414.00;;;;5105113;28;20210;-63
2021/11/02 12:02:31;;;;;;;0.37;0.37;;;16.50;99.90;17.20;95394.00;;;;5100140;28;20246;-62
2021/11/02 12:05:23;;;;;;;0.40;0.40;;;17.40;99.90;18.10;95407.00;;;;5094601;28;20348;-60
2021/11/02 12:08:22;;;;;;;1.37;0.60;;;18.10;99.90;19.50;95423.00;;;;5092103;28;20207;-62
2021/11/02 12:11:17;;;;;;;1.13;0.30;;;18.70;99.90;18.30;95405.00;;;;5101775;28;20689;-62
2021/11/02 12:14:09;;;;;;;0.30;0.30;;;19.10;94.30;19.00;95406.00;;;;5097553;28;20213;-61
2021/11/02 12:17:01;;;;;;;0.83;0.30;;;19.50;91.40;19.50;95408.00;;;;5092533;28;20206;-62
2021/11/02 12:20:04;;;;;;;0.80;0.43;;;19.70;90.00;19.50;95410.00;;;;5094155;28;20198;-62
2021/11/02 12:23:12;;;;;;;0.87;0.50;;;19.90;87.20;18.90;95412.00;;;;5103124;27;20264;-63
2021/11/02 12:26:02;;;;;;;0.50;0.50;;;20.60;80.70;20.00;95476.00;;;;5106096;28;20202;-63
2021/11/02 12:28:52;;;;;;;2.83;0.33;;;20.90;77.70;19.60;95419.00;;;;5099418;28;20216;-61
2021/11/02 12:31:46;;;;;;;0.40;0.40;;;20.70;77.00;19.10;95410.00;;;;5094337;28;20264;-64
2021/11/02 12:34:46;;;;;;;0.53;0.30;;;20.40;75.30;17.50;95468.00;;;;5099660;28;20592;-64
2021/11/02 12:37:51;;;;;;;0.50;0.40;;;19.90;73.30;16.10;95468.00;;;;5087839;28;20687;-64
2021/11/02 12:40:43;;;;;;;0.43;0.43;;;18.70;74.50;15.90;95427.00;;;;5103909;28;20206;-58
2021/11/02 12:43:38;;;;;;;0.63;0.40;;;17.80;78.30;15.00;95470.00;;;;5102932;28;20704;-59
2021/11/02 12:46:29;;;;;;;0.40;0.40;;;17.10;80.50;14.50;95475.00;;;;5101698;28;20222;-62
2021/11/02 12:49:30;;;;;;;0.83;0.50;;;16.30;83.00;14.10;95468.00;;;;5102274;28;20191;-60
2021/11/02 12:52:24;;;;;;;0.63;0.40;;;15.60;87.20;14.30;95423.00;;;;5106542;28;20221;-59
2021/11/02 12:55:19;;;;;;;0.83;0.80;;;15.10;90.80;13.70;95463.00;;;;5106142;28;20194;-63
2021/11/02 12:58:19;;;;;;;2.03;1.47;;;14.80;94.00;13.70;95389.00;;;;5106203;28;20278;-61
2021/11/02 13:01:13;;;;;;;4.27;3.00;;;14.50;97.10;14.50;95469.00;;;;5104841;28;20222;-62
2021/11/02 13:04:06;;;;;;;2.63;1.70;;;14.60;99.90;13.90;95463.00;;;;5107289;28;20211;-63
2021/11/02 13:06:57;;;;;;;3.60;1.97;;;14.50;99.90;11.60;95466.00;;;;5106164;28;20319;-61
2021/11/02 13:09:52;;;;;;;6.57;3.13;;;13.90;99.90;13.20;95408.00;;;;5093515;28;20224;-60
2021/11/02 13:12:45;;;;;;;2.20;1.37;;;13.50;99.90;12.80;95486.00;;;;5098450;28;20239;-62
2021/11/02 13:15:48;;;;;;;4.60;1.13;;;13.70;99.90;12.50;95439.00;;;;5103188;28;20201;-62
2021/11/02 13:18:39;;;;;;;3.97;2.23;;;13.50;99.90;13.40;95453.00;;;;5105589;28;20242;-62
2021/11/02 13:21:35;;;;;;;3.90;2.37;;;13.50;99.90;14.10;95493.00;;;;5104280;28;20237;-61
2021/11/02 13:24:31;;;;;;;3.80;1.23;;;13.90;99.90;12.60;95442.00;;;;5109921;27;20218;-58
2021/11/02 13:27:37;;;;;;;4.00;1.50;;;13.90;99.90;14.30;95430.00;;;;5096209;28;20549;-60
2021/11/02 13:30:34;;;;;;;3.60;1.80;;;14.10;99.90;16.50;95431.00;;;;5099773;28;20389;-63
2021/11/02 13:33:24;;;;;;;2.40;1.10;;;15.00;99.90;16.40;95510.00;;;;5104115;28;20206;-59
2021/11/02 13:36:14;;;;;;;1.40;0.90;;;15.70;99.90;16.60;95453.00;;;;5093893;28;20206;-63
2021/11/02 13:39:05;;;;;;;2.00;1.23;;;16.40;99.90;16.40;95458.00;;;;5112902;27;20186;-63
2021/11/02 13:41:56;;;;;;;1.57;0.90;;;16.70;99.90;16.30;95528.00;;;;5102507;28;20214;-61
2021/11/02 13:44:53;;;;;;;1.90;0.87;;;16.80;99.90;16.10;95522.00;;;;5091365;28;20230;-61
2021/11/02 13:47:43;;;;;;;2.60;0.73;;;16.70;99.90;13.20;95519.00;;;;5087999;28;20195;-61
2021/11/02 13:50:32;;;;;;;0.60;0.43;;;15.70;99.90;12.20;95468.00;;;;5099022;28;20984;-61
2021/11/02 13:53:23;;;;;;;2.70;1.00;;;14.60;99.90;12.80;95475.00;;;;5102628;28;20216;-63
2021/11/02 13:56:14;;;;;;;1.93;1.43;;;14.20;99.90;14.20;95482.00;;;;5087134;28;20222;-61
2021/11/02 13:59:06;;;;;;;4.03;1.83;;;14.50;99.90;15.80;95486.00;;;;5088236;28;20194;-61
2021/11/02 14:01:57;;;;;;;2.97;2.07;;;15.20;99.90;16.80;95490.00;;;;5098246;28;20226;-64
2021/11/02 14:05:11;;;;;;;1.97;1.43;;;16.10;99.90;16.60;95492.00;;;;5092041;28;20728;-63
2021/11/02 14:08:00;;;;;;;3.20;2.00;;;16.80;99.90;18.20;95508.00;;;;5102247;28;20202;-61
2021/11/02 14:10:55;;;;;;;2.07;1.37;;;17.40;99.90;18.30;95498.00;;;;5094718;28;20195;-61
2021/11/02 14:13:49;;;;;;;2.90;1.30;;;18.20;99.90;19.50;95498.00;;;;5103074;28;20602;-64
2021/11/02 14:16:42;;;;;;;1.20;1.03;;;18.90;99.90;19.30;95506.00;;;;5104999;28;20198;-65
2021/11/02 14:19:40;;;;;;;1.47;1.13;;;19.30;97.60;19.30;95506.00;;;;5105581;28;20722;-60
2021/11/02 14:22:47;;;;;;;5.87;5.40;;;19.50;96.30;17.90;95516.00;;;;5106273;28;20710;-59
2021/11/02 14:25:39;;;;;;;10.00;7.97;;;19.70;94.00;16.10;95497.00;;;;5106217;27;20222;-61
2021/11/02 14:28:33;;;;;;;5.33;3.87;;;18.80;94.50;14.80;95499.00;;;;5106226;28;20208;-65
2021/11/02 14:31:46;;;;;;;3.33;1.83;;;17.80;95.90;13.60;95488.00;;;;5105429;28;20218;-62
2021/11/02 14:34:50;;;;;;;2.63;1.40;;;16.80;97.90;13.30;95489.00;;;;5098683;28;20187;-61
2021/11/02 14:37:47;;;;;;;12.70;9.73;;;15.80;99.90;14.00;95492.00;;;;5094725;28;20205;-61
2021/11/02 14:40:38;;;;;;;70.20;59.10;;;15.50;99.90;13.80;95506.00;;;;5088730;28;20375;-62
2021/11/02 14:43:31;;;;;;;12.10;9.90;;;15.20;99.90;13.10;95505.00;;;;5090347;28;20716;-64
2021/11/02 14:46:22;;;;;;;11.03;8.93;;;14.90;99.90;13.40;95510.00;;;;5095275;28;20320;-62
2021/11/02 14:49:41;;;;;;;2.73;1.80;;;14.70;99.90;12.50;95515.00;;;;5095449;28;20732;-63
2021/11/02 14:52:36;;;;;;;1.60;1.30;;;14.20;99.90;11.70;95561.00;;;;5094438;28;20234;-61
2021/11/02 14:55:51;;;;;;;6.97;3.80;;;13.70;99.90;10.10;95561.00;;;;5097794;28;20605;-62
2021/11/02 14:58:53;;;;;;;4.70;3.23;;;12.80;99.90;9.90;95562.00;;;;5093704;28;20210;-63
2021/11/02 15:02:15;;;;;;;4.90;2.30;;;11.80;99.90;9.80;95584.00;;;;5085162;28;20235;-62
2021/11/02 15:05:10;;;;;;;3.83;2.63;;;11.20;99.90;9.60;95575.00;;;;5100101;28;20226;-56
2021/11/02 15:07:59;;;;;;;15.93;11.17;;;10.70;99.90;9.20;95577.00;;;;5101124;28;20211;-61
2021/11/02 15:10:48;;;;;;;2.70;1.60;;;10.40;99.90;9.30;95573.00;;;;5089629;28;20225;-61
2021/11/02 15:13:39;;;;;;;3.20;1.80;;;10.10;99.90;9.30;95577.00;;;;5092384;28;20210;-63
2021/11/02 15:16:28;;;;;;;1.47;1.13;;;9.90;99.90;8.80;95575.00;;;;5083526;28;20199;-63
2021/11/02 15:19:19;;;;;;;4.23;1.90;;;9.70;99.90;8.80;95574.00;;;;5085385;28;20517;-61
2021/11/02 15:22:15;;;;;;;3.00;1.73;;;9.50;99.90;8.80;95567.00;;;;5086732;28;20712;-58
2021/11/02 15:25:08;;;;;;;1.53;1.30;;;9.40;99.90;8.70;95565.00;;;;5107014;28;20218;-59
2021/11/02 15:28:01;;;;;;;1.97;1.77;;;9.30;99.90;8.60;95576.00;;;;5097240;28;20211;-58
2021/11/02 15:31:16;;;;;;;1.10;1.10;;;9.10;99.90;8.30;95574.00;;;;5100719;28;20215;-60
2021/11/02 15:34:14;;;;;;;1.43;1.33;;;9.00;99.90;7.70;95585.00;;;;5107577;28;20194;-61
2021/11/02 15:37:06;;;;;;;2.53;2.00;;;8.70;99.90;7.30;95586.00;;;;5095429;28;20194;-61
2021/11/02 15:40:12;;;;;;;2.17;1.47;;;8.40;99.90;7.40;95581.00;;;;5088536;28;20281;-58
2021/11/02 15:43:02;;;;;;;1.90;1.80;;;8.20;99.90;7.60;95588.00;;;;5093634;28;20222;-62
2021/11/02 15:45:55;;;;;;;4.47;3.13;;;8.10;99.90;7.50;95592.00;;;;5104132;28;20279;-61
2021/11/02 15:48:45;;;;;;;15.90;9.77;;;8.00;99.90;7.50;95597.00;;;;5101500;28;20255;-60
2021/11/02 15:51:37;;;;;;;5.27;4.07;;;7.90;99.90;7.50;95599.00;;;;5088379;28;20234;-63
2021/11/02 15:54:27;;;;;;;5.20;3.47;;;7.90;99.90;7.60;95593.00;;;;5091671;28;20214;-58
2021/11/02 15:57:18;;;;;;;2.93;2.33;;;7.90;99.90;7.30;95600.00;;;;5089251;28;20493;-58
2021/11/02 16:00:11;;;;;;;3.90;3.57;;;7.80;99.90;7.50;95611.00;;;;5089012;28;20210;-59
2021/11/02 16:03:01;;;;;;;6.00;5.00;;;7.80;99.90;7.40;95606.00;;;;5091308;28;20227;-59
2021/11/02 16:05:50;;;;;;;2.93;2.73;;;7.80;99.90;7.30;95616.00;;;;5086473;28;20787;-60
2021/11/02 16:08:39;;;;;;;2.27;2.07;;;7.80;99.90;7.50;95618.00;;;;5106732;28;20559;-59
2021/11/02 16:11:28;;;;;;;3.00;2.33;;;7.80;99.90;7.40;95617.00;;;;5106826;28;20222;-59
2021/11/02 16:14:19;;;;;;;2.07;1.97;;;7.70;99.90;7.50;95629.00;;;;5092828;28;20199;-64
2021/11/02 16:17:08;;;;;;;2.03;1.83;;;7.70;99.90;7.50;95639.00;;;;5108818;28;20685;-56
2021/11/02 16:19:59;;;;;;;1.90;1.50;;;7.70;99.90;7.50;95637.00;;;;5108519;28;20229;-64
2021/11/02 16:22:56;;;;;;;1.77;1.67;;;7.70;99.90;7.60;95639.00;;;;5106078;27;20732;-59
2021/11/02 16:26:14;;;;;;;1.70;1.60;;;7.80;99.90;7.60;95650.00;;;;5106692;28;20223;-60
2021/11/02 16:29:12;;;;;;;2.13;1.60;;;7.80;99.90;7.30;95654.00;;;;5109296;28;20611;-57
2021/11/02 16:32:22;;;;;;;1.67;1.57;;;7.60;99.90;7.30;95662.00;;;;5129171;27;20210;-57
2021/11/02 16:35:11;;;;;;;1.90;1.70;;;7.80;99.90;7.30;95672.00;;;;5119946;27;20200;-59
2021/11/02 16:38:23;;;;;;;2.50;2.23;;;7.70;99.90;7.30;95677.00;;;;5099666;28;20202;-58
2021/11/02 16:41:21;;;;;;;2.30;2.10;;;7.60;99.90;7.40;95672.00;;;;5087735;28;20234;-63
2021/11/02 16:44:13;;;;;;;6.87;1.50;;;7.60;99.90;7.40;95682.00;;;;5087846;28;20204;-65
2021/11/02 16:47:07;;;;;;;2.33;1.83;;;7.60;99.90;7.30;95693.00;;;;5090628;28;20277;-64
2021/11/02 16:50:06;;;;;;;2.13;1.65;;;7.60;99.90;7.40;95691.00;;;;5098583;28;20913;-62
2021/11/02 16:53:07;;;;;;;2.20;1.80;;;7.60;99.90;7.40;95699.00;;;;5093292;28;20226;-63
2021/11/02 16:56:03;;;;;;;2.23;2.03;;;7.60;99.90;7.10;95704.00;;;;5090666;28;20204;-63
2021/11/02 16:58:54;;;;;;;1.60;1.50;;;7.60;99.90;7.00;95689.00;;;;5102685;28;20202;-60
2021/11/02 17:01:43;;;;;;;1.93;1.73;;;7.50;99.90;7.10;95696.00;;;;5094674;28;20246;-63
2021/11/02 17:05:05;;;;;;;1.73;1.47;;;7.50;99.90;7.20;95698.00;;;;5094640;28;20699;-61
2021/11/02 17:08:07;;;;;;;5.30;3.77;;;7.50;99.90;7.00;95695.00;;;;5093742;28;20581;-62
2021/11/02 17:10:57;;;;;;;3.53;3.03;;;7.40;99.90;6.80;95701.00;;;;5087730;28;20202;-59
2021/11/02 17:13:49;;;;;;;3.40;2.77;;;7.30;99.90;6.60;95706.00;;;;5102857;28;20693;-60
2021/11/02 17:16:49;;;;;;;3.33;2.10;;;7.20;99.90;6.30;95707.00;;;;5095211;28;20825;-62
2021/11/02 17:19:45;;;;;;;1.97;1.73;;;7.00;99.90;6.30;95706.00;;;;5097897;28;20548;-61
2021/11/02 17:22:35;;;;;;;2.43;1.83;;;6.90;99.90;6.40;95688.00;;;;5099449;27;20759;-62
2021/11/02 17:25:26;;;;;;;3.43;2.57;;;6.90;99.90;6.50;95705.00;;;;5096167;28;20931;-61
2021/11/02 17:28:16;;;;;;;4.47;2.33;;;6.80;99.90;6.60;95710.00;;;;5104660;28;20203;-59
2021/11/02 17:31:07;;;;;;;3.23;2.47;;;6.80;99.90;6.60;95705.00;;;;5107138;28;20669;-60
2021/11/02 17:33:57;;;;;;;2.03;1.80;;;6.80;99.90;6.40;95717.00;;;;5107096;28;20197;-64
2021/11/02 17:36:46;;;;;;;2.17;2.07;;;6.80;99.90;6.30;95715.00;;;;5092271;28;20203;-57